Time;durP1;ratioP1;P1;durP2;ratioP2;P2;SDS_P1;SDS_P2;PMS_P1;PMS_P2;Temp;Humidity;BMP_temperature;BMP_pressure;BME280_temperature;BME280_humidity;BME280_pressure;Samples;Min_cycle;Max_cycle;Signal;HPM_P1;HPM_P2
2022/02/18 00:00:18;;;;;;;13.27;3.43;;;;;;;;;;5059389;28;20412;-80
2022/02/18 00:02:45;;;;;;;11.43;3.30;;;;;;;;;;5059508;28;20398;-80
2022/02/18 00:05:11;;;;;;;6.70;3.30;;;;;;;;;;5059350;28;20432;-81
2022/02/18 00:07:37;;;;;;;13.00;3.10;;;;;;;;;;5059415;28;20495;-79
2022/02/18 00:10:03;;;;;;;9.97;3.40;;;;;;;;;;5058196;28;20420;-81
2022/02/18 00:12:29;;;;;;;8.90;3.30;;;;;;;;;;5059002;28;20414;-80
2022/02/18 00:14:55;;;;;;;8.07;3.40;;;;;;;;;;5057720;28;20436;-79
2022/02/18 00:17:22;;;;;;;12.80;3.47;;;;;;;;;;5058648;28;20398;-80
2022/02/18 00:19:48;;;;;;;17.70;3.63;;;;;;;;;;5058703;28;20412;-79
2022/02/18 00:22:14;;;;;;;14.87;3.90;;;;;;;;;;5058579;28;20398;-80
2022/02/18 00:24:40;;;;;;;11.73;3.70;;;;;;;;;;5059293;28;20459;-80
2022/02/18 00:27:06;;;;;;;8.90;3.03;;;;;;;;;;5059273;28;20502;-80
2022/02/18 00:29:32;;;;;;;13.97;3.40;;;;;;;;;;5058793;28;20477;-80
2022/02/18 00:31:58;;;;;;;19.53;3.63;;;;;;;;;;5057889;28;20401;-80
2022/02/18 00:34:24;;;;;;;19.07;4.40;;;;;;;;;;5058772;28;20413;-80
2022/02/18 00:36:52;;;;;;;16.70;4.20;;;;;;;;;;5064798;23;20497;-75
2022/02/18 00:39:18;;;;;;;11.03;4.00;;;;;;;;;;5052114;28;20441;-76
2022/02/18 00:41:44;;;;;;;13.30;4.33;;;;;;;;;;5052242;28;20997;-76
2022/02/18 00:44:10;;;;;;;13.97;5.07;;;;;;;;;;5053192;28;20409;-75
2022/02/18 00:46:36;;;;;;;15.00;3.80;;;;;;;;;;5051322;28;20453;-75
2022/02/18 00:49:02;;;;;;;10.93;3.33;;;;;;;;;;5052438;28;20416;-75
2022/02/18 00:51:28;;;;;;;14.77;4.20;;;;;;;;;;5055471;28;20736;-75
2022/02/18 00:53:54;;;;;;;21.90;5.40;;;;;;;;;;5056279;28;20409;-75
2022/02/18 00:56:20;;;;;;;11.60;3.40;;;;;;;;;;5055945;28;20421;-75
2022/02/18 00:58:46;;;;;;;10.40;3.60;;;;;;;;;;5055783;28;20417;-75
2022/02/18 01:01:12;;;;;;;8.90;3.30;;;;;;;;;;5055900;28;20402;-75
2022/02/18 01:03:38;;;;;;;11.00;3.87;;;;;;;;;;5055785;28;20409;-75
2022/02/18 01:06:04;;;;;;;14.07;3.33;;;;;;;;;;5055880;28;20590;-75
2022/02/18 01:08:31;;;;;;;7.53;2.90;;;;;;;;;;5055679;28;20479;-75
2022/02/18 01:10:57;;;;;;;15.73;4.00;;;;;;;;;;5055901;28;20401;-75
2022/02/18 01:13:23;;;;;;;12.37;3.33;;;;;;;;;;5055991;28;20413;-75
2022/02/18 01:15:49;;;;;;;14.17;3.20;;;;;;;;;;5055691;28;20425;-75
2022/02/18 01:18:15;;;;;;;18.17;4.40;;;;;;;;;;5055889;28;20440;-75
2022/02/18 01:20:41;;;;;;;6.00;3.17;;;;;;;;;;5055622;28;20957;-76
2022/02/18 01:23:07;;;;;;;14.00;3.47;;;;;;;;;;5055651;28;20406;-75
2022/02/18 01:25:33;;;;;;;10.93;4.40;;;;;;;;;;5055620;28;20429;-75
2022/02/18 01:27:59;;;;;;;16.27;3.87;;;;;;;;;;5055490;28;20406;-75
2022/02/18 01:30:26;;;;;;;14.87;3.40;;;;;;;;;;5055334;28;20842;-75
2022/02/18 01:32:53;;;;;;;9.07;3.00;;;;;;;;;;5055562;28;20456;-75
2022/02/18 01:35:19;;;;;;;7.87;2.90;;;;;;;;;;5055027;28;20535;-75
2022/02/18 01:37:46;;;;;;;11.33;3.63;;;;;;;;;;5055468;28;20804;-75
2022/02/18 01:40:14;;;;;;;11.13;3.60;;;;;;;;;;5055361;28;20429;-75
2022/02/18 01:42:40;;;;;;;11.27;3.00;;;;;;;;;;5053881;28;20513;-75
2022/02/18 01:45:07;;;;;;;15.90;4.03;;;;;;;;;;5055063;28;20397;-75
2022/02/18 01:47:33;;;;;;;14.43;3.93;;;;;;;;;;5054936;28;20456;-75
2022/02/18 01:49:59;;;;;;;20.07;3.53;;;;;;;;;;5055041;28;20772;-75
2022/02/18 01:52:30;;;;;;;10.93;3.60;;;;;;;;;;5055130;28;20543;-76
2022/02/18 01:54:56;;;;;;;9.20;3.63;;;;;;;;;;5054734;28;20454;-75
2022/02/18 01:57:23;;;;;;;10.73;3.20;;;;;;;;;;5054965;28;20404;-75
2022/02/18 01:59:49;;;;;;;16.40;4.20;;;;;;;;;;5055063;28;20418;-75
2022/02/18 02:02:15;;;;;;;12.10;3.60;;;;;;;;;;5053722;28;20436;-75
2022/02/18 02:04:44;;;;;;;9.10;2.73;;;;;;;;;;5054684;28;20402;-75
2022/02/18 02:07:10;;;;;;;9.20;2.90;;;;;;;;;;5054859;28;20453;-75
2022/02/18 02:09:36;;;;;;;19.23;4.20;;;;;;;;;;5031279;28;20518;-74
2022/02/18 02:12:03;;;;;;;12.93;3.53;;;;;;;;;;5029830;28;20744;-75
2022/02/18 02:14:30;;;;;;;14.57;3.33;;;;;;;;;;5034709;28;20502;-75
2022/02/18 02:16:56;;;;;;;11.03;3.23;;;;;;;;;;5034563;28;20794;-75
2022/02/18 02:19:22;;;;;;;18.10;5.03;;;;;;;;;;5033355;28;20406;-75
2022/02/18 02:21:55;;;;;;;18.40;3.53;;;;;;;;;;5034590;28;20452;-75
2022/02/18 02:24:21;;;;;;;8.60;3.20;;;;;;;;;;5033284;28;20414;-75
2022/02/18 02:26:48;;;;;;;16.80;3.20;;;;;;;;;;5034408;28;20490;-75
2022/02/18 02:29:14;;;;;;;12.33;3.10;;;;;;;;;;5034596;28;20505;-75
2022/02/18 02:31:41;;;;;;;13.03;3.03;;;;;;;;;;5034594;28;20766;-75
2022/02/18 02:34:07;;;;;;;9.70;3.00;;;;;;;;;;5034903;28;20408;-75
2022/02/18 02:36:33;;;;;;;15.90;3.30;;;;;;;;;;5034660;28;20438;-75
2022/02/18 02:38:59;;;;;;;15.80;3.77;;;;;;;;;;5034594;28;20402;-75
2022/02/18 02:41:25;;;;;;;16.23;3.43;;;;;;;;;;5034452;28;20402;-75
2022/02/18 02:43:52;;;;;;;9.60;3.63;;;;;;;;;;5034509;28;20505;-75
2022/02/18 02:46:18;;;;;;;8.87;3.03;;;;;;;;;;5034043;28;20460;-75
2022/02/18 02:48:44;;;;;;;11.33;3.30;;;;;;;;;;5034052;28;20460;-75
2022/02/18 02:51:10;;;;;;;10.13;3.10;;;;;;;;;;5034079;28;20410;-75
2022/02/18 02:53:37;;;;;;;15.90;3.90;;;;;;;;;;5033895;28;20398;-75
2022/02/18 02:56:03;;;;;;;20.80;5.07;;;;;;;;;;5034112;28;20854;-75
2022/02/18 02:58:29;;;;;;;11.53;3.87;;;;;;;;;;5033730;28;20767;-75
2022/02/18 03:00:55;;;;;;;10.77;3.33;;;;;;;;;;5033730;28;20936;-76
2022/02/18 03:03:21;;;;;;;14.30;3.40;;;;;;;;;;5033918;28;20406;-75
2022/02/18 03:05:47;;;;;;;19.27;3.20;;;;;;;;;;5033711;28;20450;-75
2022/02/18 03:08:13;;;;;;;15.67;3.17;;;;;;;;;;5033584;28;20906;-76
2022/02/18 03:10:40;;;;;;;12.70;3.03;;;;;;;;;;5033549;28;20882;-75
2022/02/18 03:13:06;;;;;;;15.80;3.50;;;;;;;;;;5033434;28;20402;-75
2022/02/18 03:15:32;;;;;;;9.50;3.03;;;;;;;;;;5033546;28;20421;-75
2022/02/18 03:17:58;;;;;;;12.53;4.10;;;;;;;;;;5033491;28;20449;-75
2022/02/18 03:20:26;;;;;;;13.13;3.37;;;;;;;;;;5032135;28;20406;-75
2022/02/18 03:22:52;;;;;;;15.50;3.90;;;;;;;;;;5033841;28;20402;-75
2022/02/18 03:25:18;;;;;;;16.27;4.70;;;;;;;;;;5033232;28;20445;-75
2022/02/18 03:27:45;;;;;;;11.90;3.40;;;;;;;;;;5031877;28;20510;-75
2022/02/18 03:30:11;;;;;;;18.93;3.60;;;;;;;;;;5033538;28;20779;-76
2022/02/18 03:32:37;;;;;;;16.00;3.60;;;;;;;;;;5033379;28;20399;-75
2022/02/18 03:35:04;;;;;;;21.33;3.87;;;;;;;;;;5033373;28;20989;-75
2022/02/18 03:37:31;;;;;;;21.27;3.77;;;;;;;;;;5033373;28;20406;-75
2022/02/18 03:39:57;;;;;;;17.97;3.77;;;;;;;;;;5030020;28;20433;-74
2022/02/18 03:42:23;;;;;;;8.93;2.90;;;;;;;;;;5022040;28;20407;-75
2022/02/18 03:44:49;;;;;;;15.37;3.43;;;;;;;;;;5013754;28;20769;-75
2022/02/18 03:47:15;;;;;;;16.13;4.20;;;;;;;;;;5027200;28;20954;-75
2022/02/18 03:49:41;;;;;;;14.77;3.73;;;;;;;;;;5033408;28;20429;-75
2022/02/18 03:52:07;;;;;;;16.97;3.27;;;;;;;;;;5033781;28;20773;-75
2022/02/18 03:54:33;;;;;;;9.33;3.50;;;;;;;;;;5033188;28;20414;-75
2022/02/18 03:56:59;;;;;;;15.37;4.20;;;;;;;;;;5033049;28;20434;-75
2022/02/18 03:59:25;;;;;;;9.23;2.67;;;;;;;;;;5032088;28;20441;-75
2022/02/18 04:01:51;;;;;;;10.27;3.00;;;;;;;;;;5033195;28;20449;-75
2022/02/18 04:04:17;;;;;;;10.83;3.27;;;;;;;;;;5033042;28;20883;-75
2022/02/18 04:06:43;;;;;;;15.20;4.20;;;;;;;;;;5033119;28;20488;-75
2022/02/18 04:09:09;;;;;;;8.50;3.43;;;;;;;;;;5033130;28;20411;-75
2022/02/18 04:11:35;;;;;;;17.40;4.23;;;;;;;;;;5032825;28;20406;-75
2022/02/18 04:14:02;;;;;;;10.63;4.03;;;;;;;;;;5032663;28;20405;-75
2022/02/18 04:16:28;;;;;;;11.27;3.27;;;;;;;;;;5033091;28;20422;-75
2022/02/18 04:18:57;;;;;;;15.03;4.80;;;;;;;;;;5033197;28;20410;-76
2022/02/18 04:21:23;;;;;;;19.17;4.70;;;;;;;;;;5032777;28;20423;-76
2022/02/18 04:23:49;;;;;;;13.80;3.20;;;;;;;;;;5033019;28;20409;-75
2022/02/18 04:26:15;;;;;;;14.30;3.87;;;;;;;;;;5035586;28;20823;-75
2022/02/18 04:28:41;;;;;;;11.83;3.20;;;;;;;;;;5042514;28;20976;-75
2022/02/18 04:31:08;;;;;;;11.03;3.10;;;;;;;;;;5040680;28;20442;-76
2022/02/18 04:33:34;;;;;;;9.03;3.33;;;;;;;;;;5042179;28;20456;-74
2022/02/18 04:36:01;;;;;;;17.57;3.80;;;;;;;;;;5056021;28;20941;-75
2022/02/18 04:38:28;;;;;;;11.17;3.00;;;;;;;;;;5056650;28;20405;-75
2022/02/18 04:40:54;;;;;;;18.87;4.30;;;;;;;;;;5056563;28;20401;-76
2022/02/18 04:43:20;;;;;;;12.97;2.93;;;;;;;;;;5056292;28;20413;-75
2022/02/18 04:45:46;;;;;;;16.27;3.37;;;;;;;;;;5056406;28;20885;-75
2022/02/18 04:48:12;;;;;;;12.70;4.43;;;;;;;;;;5056252;28;20437;-76
2022/02/18 04:50:38;;;;;;;14.47;3.57;;;;;;;;;;5055994;28;20402;-75
2022/02/18 04:53:04;;;;;;;12.80;3.20;;;;;;;;;;5056125;28;20451;-76
2022/02/18 04:55:30;;;;;;;12.30;3.13;;;;;;;;;;5055933;28;20461;-75
2022/02/18 04:57:56;;;;;;;17.93;4.23;;;;;;;;;;5056225;28;20473;-75
2022/02/18 05:00:22;;;;;;;12.17;3.97;;;;;;;;;;5056149;28;20428;-76
2022/02/18 05:02:48;;;;;;;15.33;3.60;;;;;;;;;;5055943;28;20402;-75
2022/02/18 05:05:15;;;;;;;9.33;2.40;;;;;;;;;;5055988;28;20401;-75
2022/02/18 05:07:41;;;;;;;17.30;4.20;;;;;;;;;;5055882;28;20449;-75
2022/02/18 05:10:07;;;;;;;13.23;4.60;;;;;;;;;;5056088;28;20753;-75
2022/02/18 05:12:33;;;;;;;10.83;3.70;;;;;;;;;;5055735;28;20471;-75
2022/02/18 05:15:00;;;;;;;17.63;3.03;;;;;;;;;;5055683;28;20398;-75
2022/02/18 05:17:26;;;;;;;15.30;3.40;;;;;;;;;;5055733;28;20455;-75
2022/02/18 05:19:52;;;;;;;21.47;6.80;;;;;;;;;;5056271;28;20413;-75
2022/02/18 05:22:18;;;;;;;17.00;3.80;;;;;;;;;;5054352;28;20441;-76
2022/02/18 05:24:44;;;;;;;13.63;3.60;;;;;;;;;;5055835;28;20410;-75
2022/02/18 05:27:10;;;;;;;11.37;3.90;;;;;;;;;;5055385;28;20457;-76
2022/02/18 05:29:36;;;;;;;13.70;4.47;;;;;;;;;;5055389;28;20425;-75
2022/02/18 05:32:02;;;;;;;14.90;3.63;;;;;;;;;;5055567;28;20405;-76
2022/02/18 05:34:28;;;;;;;13.77;2.97;;;;;;;;;;5055634;28;20406;-76
2022/02/18 05:36:55;;;;;;;8.93;3.57;;;;;;;;;;5054951;28;20964;-76
2022/02/18 05:39:21;;;;;;;11.83;3.53;;;;;;;;;;5055599;28;20416;-76
2022/02/18 05:41:47;;;;;;;10.93;3.30;;;;;;;;;;5055254;28;20410;-75
2022/02/18 05:44:13;;;;;;;11.23;3.07;;;;;;;;;;5055035;28;20401;-75
2022/02/18 05:46:39;;;;;;;11.30;3.43;;;;;;;;;;5054885;28;20480;-75
2022/02/18 05:49:05;;;;;;;18.50;3.63;;;;;;;;;;5055022;28;20402;-75
2022/02/18 05:51:31;;;;;;;11.33;3.10;;;;;;;;;;5055120;28;20407;-75
2022/02/18 05:53:57;;;;;;;10.47;4.10;;;;;;;;;;5055055;28;20480;-75
2022/02/18 05:56:23;;;;;;;8.30;2.97;;;;;;;;;;5054926;28;20425;-75
2022/02/18 05:58:49;;;;;;;16.67;3.83;;;;;;;;;;5055929;28;20863;-78
2022/02/18 06:01:16;;;;;;;13.20;4.40;;;;;;;;;;5055022;28;20406;-75
2022/02/18 06:03:42;;;;;;;12.20;3.60;;;;;;;;;;5055328;28;20484;-75
2022/02/18 06:06:08;;;;;;;17.20;3.00;;;;;;;;;;5054941;28;20863;-75
2022/02/18 06:08:34;;;;;;;17.03;4.37;;;;;;;;;;5054881;28;20875;-75
2022/02/18 06:11:00;;;;;;;12.77;3.70;;;;;;;;;;5054547;28;20467;-75
2022/02/18 06:13:26;;;;;;;12.43;3.83;;;;;;;;;;5054962;28;20405;-75
2022/02/18 06:15:52;;;;;;;12.33;3.47;;;;;;;;;;5054448;28;20441;-75
2022/02/18 06:18:18;;;;;;;14.90;3.73;;;;;;;;;;5054457;28;20495;-77
2022/02/18 06:20:44;;;;;;;14.23;3.67;;;;;;;;;;5054548;28;20402;-76
2022/02/18 06:23:10;;;;;;;16.63;4.67;;;;;;;;;;5054567;28;20410;-76
2022/02/18 06:25:36;;;;;;;15.03;3.50;;;;;;;;;;5054471;28;20437;-76
2022/02/18 06:28:03;;;;;;;17.97;3.80;;;;;;;;;;5054559;28;20894;-76
2022/02/18 06:30:31;;;;;;;10.83;3.80;;;;;;;;;;5054242;28;20489;-77
2022/02/18 06:32:58;;;;;;;13.13;3.73;;;;;;;;;;5054230;28;20769;-77
2022/02/18 06:38:07;;;;;;;11.10;3.30;;;;;;;;;;5050113;28;20534;-79
2022/02/18 06:40:34;;;;;;;15.40;4.17;;;;;;;;;;5042236;28;20436;-80
2022/02/18 06:43:00;;;;;;;17.10;5.30;;;;;;;;;;5060215;28;20568;-80
2022/02/18 06:45:26;;;;;;;15.10;4.57;;;;;;;;;;5059432;28;20397;-79
2022/02/18 06:47:52;;;;;;;13.70;3.70;;;;;;;;;;5058890;28;20539;-80
2022/02/18 06:50:19;;;;;;;15.60;5.30;;;;;;;;;;5059705;28;20420;-80
2022/02/18 06:52:45;;;;;;;13.33;4.13;;;;;;;;;;5058283;28;20409;-80
2022/02/18 06:55:12;;;;;;;14.63;4.30;;;;;;;;;;5059534;28;20416;-80
2022/02/18 06:57:40;;;;;;;14.30;3.70;;;;;;;;;;5060578;28;20483;-79
2022/02/18 07:00:06;;;;;;;15.33;4.33;;;;;;;;;;5061038;28;20429;-79
2022/02/18 07:02:32;;;;;;;12.03;3.87;;;;;;;;;;5061160;28;20406;-79
2022/02/18 07:04:58;;;;;;;21.43;4.40;;;;;;;;;;5060861;28;20500;-80
2022/02/18 07:07:24;;;;;;;12.93;3.60;;;;;;;;;;5058655;28;20544;-78
2022/02/18 07:09:51;;;;;;;11.00;3.70;;;;;;;;;;5059769;28;20413;-79
2022/02/18 07:12:17;;;;;;;22.47;6.07;;;;;;;;;;5059049;28;20398;-79
2022/02/18 07:14:43;;;;;;;13.40;3.90;;;;;;;;;;5059515;28;20400;-79
2022/02/18 07:17:09;;;;;;;12.33;3.93;;;;;;;;;;5059677;28;20434;-78
2022/02/18 07:19:35;;;;;;;15.20;3.57;;;;;;;;;;5059631;28;20436;-79
2022/02/18 07:22:02;;;;;;;10.33;5.10;;;;;;;;;;5059573;28;20421;-79
2022/02/18 07:24:28;;;;;;;9.80;3.50;;;;;;;;;;5059355;28;20397;-79
2022/02/18 07:26:56;;;;;;;11.07;3.63;;;;;;;;;;5059287;28;20457;-79
2022/02/18 07:29:22;;;;;;;13.57;3.93;;;;;;;;;;5059276;28;20401;-79
2022/02/18 07:31:48;;;;;;;10.43;3.53;;;;;;;;;;5058248;28;20406;-79
2022/02/18 07:34:14;;;;;;;15.10;3.63;;;;;;;;;;5059813;28;20452;-79
2022/02/18 07:36:40;;;;;;;8.30;3.57;;;;;;;;;;5058832;28;20441;-79
2022/02/18 07:39:06;;;;;;;12.80;4.23;;;;;;;;;;5059029;28;20417;-82
2022/02/18 07:41:32;;;;;;;10.57;3.60;;;;;;;;;;5059509;28;20402;-81
2022/02/18 07:43:58;;;;;;;15.10;4.27;;;;;;;;;;5063385;28;20473;-79
2022/02/18 07:46:24;;;;;;;11.13;5.63;;;;;;;;;;5061735;28;20464;-81
2022/02/18 07:48:50;;;;;;;11.63;4.20;;;;;;;;;;5050792;28;20457;-81
2022/02/18 07:51:17;;;;;;;19.53;4.33;;;;;;;;;;5023317;28;20792;-81
2022/02/18 07:53:43;;;;;;;9.97;3.83;;;;;;;;;;5035815;28;20505;-80
2022/02/18 07:56:09;;;;;;;14.83;3.50;;;;;;;;;;5024835;28;20458;-79
2022/02/18 07:58:35;;;;;;;8.67;3.57;;;;;;;;;;5030665;28;21017;-80
2022/02/18 08:01:01;;;;;;;14.63;3.80;;;;;;;;;;5029075;28;20923;-79
2022/02/18 08:03:27;;;;;;;12.90;3.70;;;;;;;;;;5029546;28;20433;-79
2022/02/18 08:05:54;;;;;;;9.33;3.53;;;;;;;;;;5035976;28;20458;-80
2022/02/18 08:08:20;;;;;;;7.67;3.10;;;;;;;;;;5043872;28;20415;-80
2022/02/18 08:10:47;;;;;;;9.67;3.60;;;;;;;;;;5023399;28;20460;-80
2022/02/18 08:13:13;;;;;;;10.13;3.87;;;;;;;;;;5035842;28;20925;-80
2022/02/18 08:15:39;;;;;;;12.93;3.50;;;;;;;;;;5031051;28;20418;-79
2022/02/18 08:18:05;;;;;;;12.47;3.57;;;;;;;;;;5025764;28;20498;-81
2022/02/18 08:20:31;;;;;;;11.83;3.60;;;;;;;;;;5039428;28;20418;-80
2022/02/18 08:22:57;;;;;;;15.40;3.83;;;;;;;;;;5039190;28;20418;-81
2022/02/18 08:25:23;;;;;;;13.93;3.07;;;;;;;;;;5037907;28;20407;-80
2022/02/18 08:27:49;;;;;;;8.60;3.03;;;;;;;;;;5037924;28;20461;-81
2022/02/18 08:30:15;;;;;;;8.17;3.07;;;;;;;;;;5038482;28;20421;-81
2022/02/18 08:32:42;;;;;;;18.50;3.97;;;;;;;;;;5045674;28;20426;-81
2022/02/18 08:35:08;;;;;;;11.93;3.50;;;;;;;;;;5036393;28;20422;-81
2022/02/18 08:37:35;;;;;;;6.10;3.13;;;;;;;;;;5033771;28;20457;-81
2022/02/18 08:40:01;;;;;;;9.57;2.70;;;;;;;;;;5035816;28;20421;-81
2022/02/18 08:42:27;;;;;;;11.43;3.20;;;;;;;;;;5040546;28;20571;-80
2022/02/18 08:44:53;;;;;;;11.00;3.57;;;;;;;;;;5041515;28;20409;-81
2022/02/18 08:47:19;;;;;;;8.37;2.70;;;;;;;;;;5034112;28;20474;-80
2022/02/18 08:49:45;;;;;;;7.67;2.90;;;;;;;;;;5026317;28;20416;-81
2022/02/18 08:52:11;;;;;;;6.60;2.40;;;;;;;;;;5029512;28;20418;-79
2022/02/18 08:54:39;;;;;;;10.30;3.37;;;;;;;;;;5034588;28;20423;-79
2022/02/18 08:57:05;;;;;;;8.43;3.37;;;;;;;;;;5044788;28;20435;-80
2022/02/18 08:59:31;;;;;;;8.43;3.63;;;;;;;;;;5031248;28;20427;-79
2022/02/18 09:01:58;;;;;;;9.70;2.50;;;;;;;;;;5035476;28;20426;-79
2022/02/18 09:04:24;;;;;;;17.50;4.63;;;;;;;;;;5036481;28;20552;-79
2022/02/18 09:06:51;;;;;;;10.33;2.87;;;;;;;;;;5031661;28;20617;-79
2022/02/18 09:09:17;;;;;;;9.57;2.57;;;;;;;;;;5033510;28;20490;-79
2022/02/18 09:11:44;;;;;;;11.70;3.30;;;;;;;;;;5046449;28;20498;-81
2022/02/18 09:14:10;;;;;;;8.03;3.47;;;;;;;;;;5042957;28;20441;-80
2022/02/18 09:16:36;;;;;;;16.10;3.77;;;;;;;;;;5033445;28;20462;-79
2022/02/18 09:19:02;;;;;;;7.67;3.53;;;;;;;;;;5035635;28;20472;-80
2022/02/18 09:21:28;;;;;;;10.87;3.70;;;;;;;;;;5040624;28;20433;-80
2022/02/18 09:23:54;;;;;;;8.77;3.93;;;;;;;;;;5040317;28;20506;-81
2022/02/18 09:26:23;;;;;;;12.40;3.80;;;;;;;;;;5029243;28;20474;-81
2022/02/18 09:28:49;;;;;;;5.80;2.63;;;;;;;;;;5033932;28;20419;-80
2022/02/18 09:31:15;;;;;;;7.90;3.20;;;;;;;;;;5036732;28;20414;-80
2022/02/18 09:33:41;;;;;;;9.63;3.30;;;;;;;;;;5040807;28;20415;-81
2022/02/18 09:36:08;;;;;;;10.67;2.77;;;;;;;;;;5039491;28;20495;-80
2022/02/18 09:38:36;;;;;;;10.33;2.60;;;;;;;;;;5030210;28;20565;-80
2022/02/18 09:41:02;;;;;;;9.63;2.90;;;;;;;;;;5032912;28;20426;-81
2022/02/18 09:43:29;;;;;;;10.30;3.10;;;;;;;;;;5030098;28;20439;-81
2022/02/18 09:45:55;;;;;;;10.40;3.30;;;;;;;;;;5028060;28;20210;-81
2022/02/18 09:48:22;;;;;;;11.13;4.00;;;;;;;;;;5033617;28;20978;-81
2022/02/18 09:50:48;;;;;;;9.47;3.70;;;;;;;;;;5022714;28;20962;-82
2022/02/18 09:53:14;;;;;;;7.43;3.50;;;;;;;;;;5037717;28;20417;-81
2022/02/18 09:55:40;;;;;;;12.03;3.80;;;;;;;;;;5031373;28;20469;-81
2022/02/18 09:58:07;;;;;;;6.30;2.67;;;;;;;;;;5046505;28;20414;-81
2022/02/18 10:00:34;;;;;;;8.43;2.67;;;;;;;;;;5029236;28;20416;-78
2022/02/18 10:03:01;;;;;;;7.80;2.70;;;;;;;;;;5042117;28;20418;-81
2022/02/18 10:05:27;;;;;;;9.80;2.77;;;;;;;;;;5029368;28;20418;-80
2022/02/18 10:08:05;;;;;;;11.07;3.10;;;;;;;;;;5027095;28;20541;-81
2022/02/18 10:10:32;;;;;;;9.33;2.90;;;;;;;;;;5035784;28;20460;-81
2022/02/18 10:12:59;;;;;;;9.53;4.00;;;;;;;;;;5030729;28;20992;-81
2022/02/18 10:15:25;;;;;;;13.53;5.00;;;;;;;;;;5036477;28;20415;-81
2022/02/18 10:17:58;;;;;;;10.67;5.03;;;;;;;;;;5036329;28;20473;-82
2022/02/18 10:20:28;;;;;;;10.27;4.57;;;;;;;;;;5036415;28;20775;-82
2022/02/18 10:22:55;;;;;;;9.47;4.00;;;;;;;;;;5032191;28;20423;-83
2022/02/18 10:25:25;;;;;;;10.10;4.87;;;;;;;;;;5022196;28;20420;-83
2022/02/18 10:27:51;;;;;;;8.83;3.67;;;;;;;;;;5026753;28;20795;-83
2022/02/18 10:30:25;;;;;;;13.60;4.40;;;;;;;;;;5035594;28;20426;-82
2022/02/18 10:32:52;;;;;;;7.10;2.80;;;;;;;;;;5027918;28;20446;-82
2022/02/18 10:35:20;;;;;;;7.83;2.23;;;;;;;;;;5042010;28;20419;-81
2022/02/18 10:37:55;;;;;;;3.63;1.93;;;;;;;;;;5044746;28;20458;-83
2022/02/18 10:40:22;;;;;;;6.10;2.70;;;;;;;;;;5027921;28;20422;-82
2022/02/18 10:42:50;;;;;;;8.63;2.30;;;;;;;;;;5024050;28;20423;-83
2022/02/18 10:45:22;;;;;;;4.83;2.17;;;;;;;;;;5028916;28;20430;-83
2022/02/18 10:47:48;;;;;;;5.90;2.30;;;;;;;;;;5026758;28;20497;-82
2022/02/18 10:50:14;;;;;;;7.90;2.50;;;;;;;;;;5026845;28;20422;-82
2022/02/18 10:52:41;;;;;;;9.50;2.40;;;;;;;;;;5024914;28;20422;-83
2022/02/18 10:55:07;;;;;;;8.27;2.20;;;;;;;;;;5037299;28;20517;-83
2022/02/18 10:57:33;;;;;;;5.27;1.87;;;;;;;;;;5038329;28;20426;-83
2022/02/18 11:00:10;;;;;;;4.13;1.97;;;;;;;;;;5039085;28;20411;-83
2022/02/18 11:02:40;;;;;;;7.60;2.40;;;;;;;;;;5040520;28;20413;-83
2022/02/18 11:05:22;;;;;;;5.03;2.07;;;;;;;;;;5021569;28;20477;-83
2022/02/18 11:07:48;;;;;;;4.00;1.63;;;;;;;;;;5027431;28;20455;-83
2022/02/18 11:10:31;;;;;;;4.30;2.10;;;;;;;;;;5029534;28;20405;-82
2022/02/18 11:12:57;;;;;;;6.27;2.10;;;;;;;;;;5045047;28;20410;-83
2022/02/18 11:15:23;;;;;;;3.50;1.90;;;;;;;;;;5038855;28;20762;-82
2022/02/18 11:17:51;;;;;;;6.60;2.37;;;;;;;;;;5039059;28;20426;-82
2022/02/18 11:20:18;;;;;;;4.43;2.10;;;;;;;;;;5037816;28;20415;-82
2022/02/18 11:22:45;;;;;;;5.73;1.97;;;;;;;;;;5038430;28;20406;-83
2022/02/18 11:25:11;;;;;;;4.20;1.97;;;;;;;;;;5036511;28;20398;-83
2022/02/18 11:27:38;;;;;;;3.47;1.90;;;;;;;;;;5036385;28;20462;-82
2022/02/18 11:30:05;;;;;;;6.13;2.20;;;;;;;;;;5022600;28;20430;-82
2022/02/18 11:32:37;;;;;;;6.40;2.20;;;;;;;;;;5020779;28;20415;-81
2022/02/18 11:35:12;;;;;;;5.97;2.80;;;;;;;;;;5019859;28;20495;-81
2022/02/18 11:38:04;;;;;;;7.30;2.83;;;;;;;;;;5017194;28;20458;-82
2022/02/18 11:41:02;;;;;;;7.20;3.43;;;;;;;;;;5032195;28;20838;-81
2022/02/18 11:43:31;;;;;;;7.00;2.53;;;;;;;;;;5004522;28;20984;-82
2022/02/18 11:46:04;;;;;;;6.70;2.60;;;;;;;;;;5036624;28;20458;-82
2022/02/18 11:48:43;;;;;;;7.50;2.37;;;;;;;;;;5035653;28;20431;-82
2022/02/18 11:51:13;;;;;;;11.40;3.03;;;;;;;;;;5018171;28;20468;-81
2022/02/18 11:53:40;;;;;;;6.67;2.43;;;;;;;;;;5031757;28;20430;-82
2022/02/18 11:56:06;;;;;;;5.57;2.20;;;;;;;;;;5025446;28;20446;-80
2022/02/18 11:58:49;;;;;;;8.00;2.70;;;;;;;;;;5023792;28;20422;-81
2022/02/18 12:01:15;;;;;;;8.20;2.43;;;;;;;;;;5027348;28;20472;-83
2022/02/18 12:03:41;;;;;;;6.10;2.20;;;;;;;;;;5037183;28;20430;-82
2022/02/18 12:06:12;;;;;;;4.23;2.47;;;;;;;;;;5029054;28;20455;-82
2022/02/18 12:08:42;;;;;;;11.67;4.87;;;;;;;;;;5036626;28;20414;-81
2022/02/18 12:11:09;;;;;;;9.33;2.90;;;;;;;;;;5037129;28;20442;-82
2022/02/18 12:13:54;;;;;;;9.00;2.47;;;;;;;;;;5031763;28;20437;-82
2022/02/18 12:16:21;;;;;;;6.10;2.03;;;;;;;;;;5033195;28;20465;-83
2022/02/18 12:19:05;;;;;;;6.00;1.97;;;;;;;;;;5030214;28;20424;-83
2022/02/18 12:21:32;;;;;;;5.77;2.43;;;;;;;;;;5026450;28;20418;-81
2022/02/18 12:24:18;;;;;;;4.77;2.30;;;;;;;;;;5025939;28;20420;-81
2022/02/18 12:26:44;;;;;;;5.03;2.57;;;;;;;;;;5021328;28;20465;-79
2022/02/18 12:29:16;;;;;;;6.83;2.43;;;;;;;;;;5026557;28;20423;-82
2022/02/18 12:31:52;;;;;;;4.50;2.50;;;;;;;;;;5030197;28;20415;-82
2022/02/18 12:34:27;;;;;;;7.23;2.50;;;;;;;;;;5030456;28;20426;-82
2022/02/18 12:36:54;;;;;;;15.73;2.30;;;;;;;;;;5055910;23;20490;-75
2022/02/18 12:39:35;;;;;;;6.93;2.30;;;;;;;;;;5040865;28;20430;-76
2022/02/18 12:42:13;;;;;;;7.10;3.00;;;;;;;;;;5045558;28;20463;-76
2022/02/18 12:44:49;;;;;;;8.43;2.30;;;;;;;;;;5041677;28;20925;-76
2022/02/18 12:47:19;;;;;;;6.03;2.37;;;;;;;;;;5051533;28;20461;-75
2022/02/18 12:49:45;;;;;;;7.00;2.43;;;;;;;;;;5024322;28;20955;-76
2022/02/18 12:52:12;;;;;;;9.33;2.30;;;;;;;;;;5032274;28;20450;-75
2022/02/18 12:54:51;;;;;;;5.17;2.70;;;;;;;;;;5017490;28;20475;-75
2022/02/18 12:57:22;;;;;;;5.00;2.20;;;;;;;;;;5023186;28;20438;-76
2022/02/18 12:59:49;;;;;;;6.13;2.33;;;;;;;;;;5035160;28;20805;-76
2022/02/18 13:02:34;;;;;;;5.40;1.80;;;;;;;;;;5033972;28;20418;-75
2022/02/18 13:05:07;;;;;;;7.70;2.13;;;;;;;;;;5019015;28;20432;-76
2022/02/18 13:07:37;;;;;;;2.90;1.63;;;;;;;;;;5017306;28;20458;-76
2022/02/18 13:10:05;;;;;;;3.70;1.60;;;;;;;;;;5044259;28;20500;-75
2022/02/18 13:12:34;;;;;;;7.50;1.70;;;;;;;;;;5033098;28;20422;-76
2022/02/18 13:15:04;;;;;;;4.53;2.27;;;;;;;;;;5028658;28;20814;-75
2022/02/18 13:17:30;;;;;;;4.70;1.77;;;;;;;;;;5038372;28;20438;-74
2022/02/18 13:19:57;;;;;;;6.17;2.47;;;;;;;;;;5032531;28;20511;-75
2022/02/18 13:22:31;;;;;;;5.47;1.93;;;;;;;;;;5028775;28;20416;-76
2022/02/18 13:24:57;;;;;;;6.03;1.70;;;;;;;;;;5034418;28;20493;-75
2022/02/18 13:27:23;;;;;;;4.80;1.80;;;;;;;;;;5033738;28;20462;-76
2022/02/18 13:29:54;;;;;;;8.23;1.83;;;;;;;;;;5027931;28;20782;-76
2022/02/18 13:32:20;;;;;;;4.10;1.60;;;;;;;;;;5024789;28;20980;-77
2022/02/18 13:34:50;;;;;;;3.80;2.20;;;;;;;;;;5033567;28;20807;-76
2022/02/18 13:37:20;;;;;;;6.90;2.30;;;;;;;;;;5021836;28;20441;-77
2022/02/18 13:39:48;;;;;;;5.00;1.83;;;;;;;;;;5033775;28;20415;-76
2022/02/18 13:42:14;;;;;;;4.07;1.80;;;;;;;;;;5023562;28;20509;-76
2022/02/18 13:45:02;;;;;;;4.23;1.90;;;;;;;;;;5026772;28;20427;-76
2022/02/18 13:47:40;;;;;;;8.07;2.57;;;;;;;;;;5021689;28;20453;-76
2022/02/18 13:50:07;;;;;;;7.20;2.63;;;;;;;;;;5031676;28;20406;-75
2022/02/18 13:52:33;;;;;;;5.17;2.00;;;;;;;;;;5028971;28;21284;-76
2022/02/18 13:54:59;;;;;;;5.30;2.13;;;;;;;;;;5026436;28;20431;-76
2022/02/18 13:57:30;;;;;;;7.47;2.57;;;;;;;;;;5035768;28;20439;-77
2022/02/18 13:59:57;;;;;;;9.10;2.20;;;;;;;;;;5030469;28;20409;-76
2022/02/18 14:02:23;;;;;;;10.77;2.50;;;;;;;;;;5031155;28;20425;-76
2022/02/18 14:04:54;;;;;;;5.47;2.07;;;;;;;;;;5024118;28;20446;-76
2022/02/18 14:07:24;;;;;;;9.50;2.33;;;;;;;;;;5034712;28;20454;-76
2022/02/18 14:09:57;;;;;;;11.57;2.63;;;;;;;;;;5040230;28;20555;-77
2022/02/18 14:12:39;;;;;;;4.87;2.40;;;;;;;;;;5032302;28;20777;-76
2022/02/18 14:15:05;;;;;;;6.07;1.83;;;;;;;;;;5022453;28;20422;-77
2022/02/18 14:17:33;;;;;;;5.50;2.73;;;;;;;;;;5023096;28;20442;-76
2022/02/18 14:20:00;;;;;;;8.33;2.07;;;;;;;;;;5021370;28;20411;-77
2022/02/18 14:22:27;;;;;;;9.27;3.20;;;;;;;;;;5019795;28;20789;-76
2022/02/18 14:24:53;;;;;;;7.27;2.20;;;;;;;;;;5033119;28;20438;-76
2022/02/18 14:27:21;;;;;;;10.83;2.90;;;;;;;;;;5019961;28;20987;-77
2022/02/18 14:29:57;;;;;;;11.17;2.50;;;;;;;;;;5024915;28;20466;-76
2022/02/18 14:32:38;;;;;;;5.73;2.20;;;;;;;;;;5028855;28;20517;-77
2022/02/18 14:35:05;;;;;;;11.60;2.87;;;;;;;;;;5017892;28;20518;-77
2022/02/18 14:37:32;;;;;;;3.90;2.50;;;;;;;;;;5019296;28;20451;-76
2022/02/18 14:40:11;;;;;;;8.27;2.47;;;;;;;;;;5021784;28;20423;-76